Terminal Aerodrome Forecast
Issued by NWS

Home | Current Version | Previous Version | Graphics & Text | Print | Product List | Glossary On
Versions: 1 2 3 4 5 6 7 8 9 10 11 12 13 14 15 16
761
FTUS43 KMPX 290520
TAFAXN
TAF
KAXN 290520Z 2906/3006 16012KT P6SM BKN200
     FM290800 18010KT P6SM VCTS BKN080CB
     FM291100 19010KT P6SM FEW080 SCT200
     FM291500 25009KT P6SM SCT250
     FM292000 30005KT P6SM SCT060 BKN090
      TEMPO 2920/2923 -TSRA BKN060CB OVC090=

USA.gov is the U.S. government's official web portal to all federal, state and local government web resources and services.